sensor_id;sensor_type;location;lat;lon;timestamp;P1;durP1;ratioP1;P2;durP2;ratioP2
12597;SDS011;6364;53.590;9.956;2024-03-22T00:02:07;31.70;;;17.77;;
12597;SDS011;6364;53.590;9.956;2024-03-22T00:04:34;28.73;;;17.95;;
12597;SDS011;6364;53.590;9.956;2024-03-22T00:07:00;28.17;;;17.55;;
12597;SDS011;6364;53.590;9.956;2024-03-22T00:09:26;30.73;;;17.50;;
12597;SDS011;6364;53.590;9.956;2024-03-22T00:11:51;32.03;;;18.30;;
12597;SDS011;6364;53.590;9.956;2024-03-22T00:14:16;30.02;;;17.92;;
12597;SDS011;6364;53.590;9.956;2024-03-22T00:16:42;26.40;;;17.90;;
12597;SDS011;6364;53.590;9.956;2024-03-22T00:19:07;34.25;;;18.15;;
12597;SDS011;6364;53.590;9.956;2024-03-22T00:21:32;31.67;;;18.27;;
12597;SDS011;6364;53.590;9.956;2024-03-22T00:23:58;30.40;;;17.95;;
12597;SDS011;6364;53.590;9.956;2024-03-22T00:26:23;34.83;;;18.45;;
12597;SDS011;6364;53.590;9.956;2024-03-22T00:28:49;27.08;;;17.92;;
12597;SDS011;6364;53.590;9.956;2024-03-22T00:31:14;29.00;;;17.77;;
12597;SDS011;6364;53.590;9.956;2024-03-22T00:33:41;33.30;;;18.10;;
12597;SDS011;6364;53.590;9.956;2024-03-22T00:36:06;30.27;;;17.58;;
12597;SDS011;6364;53.590;9.956;2024-03-22T00:38:32;28.92;;;17.58;;
12597;SDS011;6364;53.590;9.956;2024-03-22T00:40:58;23.73;;;16.40;;
12597;SDS011;6364;53.590;9.956;2024-03-22T00:43:23;32.63;;;18.08;;
12597;SDS011;6364;53.590;9.956;2024-03-22T00:45:49;30.10;;;17.05;;
12597;SDS011;6364;53.590;9.956;2024-03-22T00:48:14;29.50;;;17.60;;
12597;SDS011;6364;53.590;9.956;2024-03-22T00:50:40;29.15;;;17.23;;
12597;SDS011;6364;53.590;9.956;2024-03-22T00:53:05;32.13;;;18.38;;
12597;SDS011;6364;53.590;9.956;2024-03-22T00:55:32;34.80;;;19.20;;
12597;SDS011;6364;53.590;9.956;2024-03-22T00:57:58;25.83;;;18.50;;
12597;SDS011;6364;53.590;9.956;2024-03-22T01:00:23;26.33;;;17.25;;
12597;SDS011;6364;53.590;9.956;2024-03-22T01:02:49;32.88;;;19.17;;
12597;SDS011;6364;53.590;9.956;2024-03-22T01:05:15;34.60;;;18.98;;
12597;SDS011;6364;53.590;9.956;2024-03-22T01:07:41;34.13;;;18.98;;
12597;SDS011;6364;53.590;9.956;2024-03-22T01:10:06;29.02;;;18.77;;
12597;SDS011;6364;53.590;9.956;2024-03-22T01:12:32;34.97;;;18.83;;
12597;SDS011;6364;53.590;9.956;2024-03-22T01:14:57;36.50;;;19.83;;
12597;SDS011;6364;53.590;9.956;2024-03-22T01:17:23;33.15;;;17.67;;
12597;SDS011;6364;53.590;9.956;2024-03-22T01:19:48;31.90;;;18.30;;
12597;SDS011;6364;53.590;9.956;2024-03-22T01:22:13;33.03;;;19.70;;
12597;SDS011;6364;53.590;9.956;2024-03-22T01:24:39;27.80;;;18.45;;
12597;SDS011;6364;53.590;9.956;2024-03-22T01:27:05;31.35;;;18.58;;
12597;SDS011;6364;53.590;9.956;2024-03-22T01:29:31;33.10;;;19.08;;
12597;SDS011;6364;53.590;9.956;2024-03-22T01:31:57;25.42;;;17.65;;
12597;SDS011;6364;53.590;9.956;2024-03-22T01:34:23;29.63;;;17.50;;
12597;SDS011;6364;53.590;9.956;2024-03-22T01:36:48;31.63;;;18.90;;
12597;SDS011;6364;53.590;9.956;2024-03-22T01:39:13;28.20;;;18.40;;
12597;SDS011;6364;53.590;9.956;2024-03-22T01:41:40;28.77;;;18.35;;
12597;SDS011;6364;53.590;9.956;2024-03-22T01:44:06;32.20;;;19.00;;
12597;SDS011;6364;53.590;9.956;2024-03-22T01:46:31;32.80;;;19.23;;
12597;SDS011;6364;53.590;9.956;2024-03-22T01:48:57;37.53;;;20.10;;
12597;SDS011;6364;53.590;9.956;2024-03-22T01:51:22;32.22;;;19.98;;
12597;SDS011;6364;53.590;9.956;2024-03-22T01:53:47;33.55;;;21.30;;
12597;SDS011;6364;53.590;9.956;2024-03-22T01:56:13;32.33;;;21.33;;
12597;SDS011;6364;53.590;9.956;2024-03-22T01:58:39;34.47;;;20.15;;
12597;SDS011;6364;53.590;9.956;2024-03-22T02:01:05;31.58;;;20.83;;
12597;SDS011;6364;53.590;9.956;2024-03-22T02:03:31;38.45;;;21.92;;
12597;SDS011;6364;53.590;9.956;2024-03-22T02:05:56;34.50;;;21.95;;
12597;SDS011;6364;53.590;9.956;2024-03-22T02:08:21;36.38;;;23.02;;
12597;SDS011;6364;53.590;9.956;2024-03-22T02:10:47;38.40;;;22.25;;
12597;SDS011;6364;53.590;9.956;2024-03-22T02:13:12;44.67;;;24.05;;
12597;SDS011;6364;53.590;9.956;2024-03-22T02:15:37;39.60;;;23.20;;
12597;SDS011;6364;53.590;9.956;2024-03-22T02:18:03;40.17;;;24.20;;
12597;SDS011;6364;53.590;9.956;2024-03-22T02:20:28;40.42;;;24.02;;
12597;SDS011;6364;53.590;9.956;2024-03-22T02:22:54;45.38;;;25.35;;
12597;SDS011;6364;53.590;9.956;2024-03-22T02:25:19;38.17;;;24.67;;
12597;SDS011;6364;53.590;9.956;2024-03-22T02:27:45;38.90;;;24.92;;
12597;SDS011;6364;53.590;9.956;2024-03-22T02:30:10;45.10;;;25.23;;
12597;SDS011;6364;53.590;9.956;2024-03-22T02:32:35;40.75;;;26.50;;
12597;SDS011;6364;53.590;9.956;2024-03-22T02:35:02;46.25;;;25.25;;
12597;SDS011;6364;53.590;9.956;2024-03-22T02:37:27;42.20;;;27.38;;
12597;SDS011;6364;53.590;9.956;2024-03-22T02:39:53;42.25;;;25.63;;
12597;SDS011;6364;53.590;9.956;2024-03-22T02:42:18;44.90;;;25.98;;
12597;SDS011;6364;53.590;9.956;2024-03-22T02:44:44;43.33;;;27.90;;
12597;SDS011;6364;53.590;9.956;2024-03-22T02:47:09;42.58;;;27.30;;
12597;SDS011;6364;53.590;9.956;2024-03-22T02:49:35;49.30;;;28.38;;
12597;SDS011;6364;53.590;9.956;2024-03-22T02:52:01;49.53;;;28.83;;
12597;SDS011;6364;53.590;9.956;2024-03-22T02:54:26;51.17;;;28.27;;
12597;SDS011;6364;53.590;9.956;2024-03-22T02:56:52;46.25;;;29.00;;
12597;SDS011;6364;53.590;9.956;2024-03-22T02:59:17;51.15;;;30.17;;
12597;SDS011;6364;53.590;9.956;2024-03-22T03:01:43;48.53;;;29.15;;
12597;SDS011;6364;53.590;9.956;2024-03-22T03:04:08;49.78;;;30.23;;
12597;SDS011;6364;53.590;9.956;2024-03-22T03:06:33;48.17;;;29.58;;
12597;SDS011;6364;53.590;9.956;2024-03-22T03:08:59;52.92;;;30.02;;
12597;SDS011;6364;53.590;9.956;2024-03-22T03:11:24;55.42;;;30.73;;
12597;SDS011;6364;53.590;9.956;2024-03-22T03:13:49;50.47;;;29.88;;
12597;SDS011;6364;53.590;9.956;2024-03-22T03:16:15;54.55;;;32.28;;
12597;SDS011;6364;53.590;9.956;2024-03-22T03:18:40;51.70;;;31.98;;
12597;SDS011;6364;53.590;9.956;2024-03-22T03:21:06;52.10;;;32.80;;
12597;SDS011;6364;53.590;9.956;2024-03-22T03:23:31;57.78;;;33.72;;
12597;SDS011;6364;53.590;9.956;2024-03-22T03:25:57;53.15;;;32.97;;
12597;SDS011;6364;53.590;9.956;2024-03-22T03:28:22;56.08;;;33.22;;
12597;SDS011;6364;53.590;9.956;2024-03-22T03:30:47;56.70;;;33.40;;
12597;SDS011;6364;53.590;9.956;2024-03-22T03:33:13;57.35;;;33.90;;
12597;SDS011;6364;53.590;9.956;2024-03-22T03:35:38;51.95;;;32.20;;
12597;SDS011;6364;53.590;9.956;2024-03-22T03:38:03;54.08;;;34.45;;
12597;SDS011;6364;53.590;9.956;2024-03-22T03:40:29;54.47;;;33.47;;
12597;SDS011;6364;53.590;9.956;2024-03-22T03:42:54;57.80;;;34.22;;
12597;SDS011;6364;53.590;9.956;2024-03-22T03:45:19;52.75;;;34.20;;
12597;SDS011;6364;53.590;9.956;2024-03-22T03:47:45;58.78;;;36.80;;
12597;SDS011;6364;53.590;9.956;2024-03-22T03:50:10;63.55;;;36.30;;
12597;SDS011;6364;53.590;9.956;2024-03-22T03:52:36;62.10;;;36.30;;
12597;SDS011;6364;53.590;9.956;2024-03-22T03:55:01;60.72;;;36.45;;
12597;SDS011;6364;53.590;9.956;2024-03-22T03:57:27;61.72;;;37.30;;
12597;SDS011;6364;53.590;9.956;2024-03-22T03:59:52;65.15;;;37.67;;
12597;SDS011;6364;53.590;9.956;2024-03-22T04:02:18;66.32;;;38.30;;
12597;SDS011;6364;53.590;9.956;2024-03-22T04:04:43;63.17;;;38.53;;
12597;SDS011;6364;53.590;9.956;2024-03-22T04:07:08;62.97;;;39.83;;
12597;SDS011;6364;53.590;9.956;2024-03-22T04:09:34;68.63;;;39.47;;
12597;SDS011;6364;53.590;9.956;2024-03-22T04:11:59;66.35;;;39.10;;
12597;SDS011;6364;53.590;9.956;2024-03-22T04:14:25;67.10;;;39.00;;
12597;SDS011;6364;53.590;9.956;2024-03-22T04:16:50;62.17;;;37.55;;
12597;SDS011;6364;53.590;9.956;2024-03-22T04:19:16;69.32;;;40.20;;
12597;SDS011;6364;53.590;9.956;2024-03-22T04:21:42;65.30;;;39.40;;
12597;SDS011;6364;53.590;9.956;2024-03-22T04:24:07;70.85;;;42.15;;
12597;SDS011;6364;53.590;9.956;2024-03-22T04:26:32;65.40;;;40.88;;
12597;SDS011;6364;53.590;9.956;2024-03-22T04:28:58;71.35;;;41.28;;
12597;SDS011;6364;53.590;9.956;2024-03-22T04:31:23;69.70;;;42.20;;
12597;SDS011;6364;53.590;9.956;2024-03-22T04:33:48;73.15;;;42.35;;
12597;SDS011;6364;53.590;9.956;2024-03-22T04:36:14;70.38;;;42.75;;
12597;SDS011;6364;53.590;9.956;2024-03-22T04:38:40;66.47;;;40.70;;
12597;SDS011;6364;53.590;9.956;2024-03-22T04:41:05;65.95;;;40.17;;
12597;SDS011;6364;53.590;9.956;2024-03-22T04:43:31;69.85;;;41.83;;
12597;SDS011;6364;53.590;9.956;2024-03-22T04:45:56;72.13;;;42.97;;
12597;SDS011;6364;53.590;9.956;2024-03-22T04:48:22;71.10;;;43.30;;
12597;SDS011;6364;53.590;9.956;2024-03-22T04:50:48;73.07;;;42.35;;
12597;SDS011;6364;53.590;9.956;2024-03-22T04:53:17;72.15;;;42.38;;
12597;SDS011;6364;53.590;9.956;2024-03-22T04:55:43;71.38;;;42.90;;
12597;SDS011;6364;53.590;9.956;2024-03-22T04:58:16;71.90;;;42.50;;
12597;SDS011;6364;53.590;9.956;2024-03-22T05:00:43;69.80;;;42.60;;
12597;SDS011;6364;53.590;9.956;2024-03-22T05:03:08;73.85;;;43.58;;
12597;SDS011;6364;53.590;9.956;2024-03-22T05:05:34;73.57;;;42.40;;
12597;SDS011;6364;53.590;9.956;2024-03-22T05:08:00;77.28;;;44.00;;
12597;SDS011;6364;53.590;9.956;2024-03-22T05:10:26;70.05;;;43.28;;
12597;SDS011;6364;53.590;9.956;2024-03-22T05:12:51;74.20;;;43.88;;
12597;SDS011;6364;53.590;9.956;2024-03-22T05:15:16;72.32;;;43.83;;
12597;SDS011;6364;53.590;9.956;2024-03-22T05:17:42;71.10;;;40.63;;
12597;SDS011;6364;53.590;9.956;2024-03-22T05:20:08;73.70;;;43.00;;
12597;SDS011;6364;53.590;9.956;2024-03-22T05:22:36;75.03;;;43.53;;
12597;SDS011;6364;53.590;9.956;2024-03-22T05:25:02;73.57;;;43.95;;
12597;SDS011;6364;53.590;9.956;2024-03-22T05:27:28;76.82;;;43.58;;
12597;SDS011;6364;53.590;9.956;2024-03-22T05:29:55;72.05;;;43.50;;
12597;SDS011;6364;53.590;9.956;2024-03-22T05:32:21;70.30;;;44.03;;
12597;SDS011;6364;53.590;9.956;2024-03-22T05:34:46;72.28;;;44.53;;
12597;SDS011;6364;53.590;9.956;2024-03-22T05:37:12;73.78;;;44.72;;
12597;SDS011;6364;53.590;9.956;2024-03-22T05:39:37;71.28;;;43.88;;
12597;SDS011;6364;53.590;9.956;2024-03-22T05:42:03;75.80;;;45.03;;
12597;SDS011;6364;53.590;9.956;2024-03-22T05:44:28;77.30;;;45.13;;
12597;SDS011;6364;53.590;9.956;2024-03-22T05:46:54;77.95;;;44.13;;
12597;SDS011;6364;53.590;9.956;2024-03-22T05:49:19;77.28;;;45.83;;
12597;SDS011;6364;53.590;9.956;2024-03-22T05:51:45;81.55;;;46.17;;
12597;SDS011;6364;53.590;9.956;2024-03-22T05:54:10;76.18;;;45.33;;
12597;SDS011;6364;53.590;9.956;2024-03-22T05:56:35;86.20;;;46.90;;
12597;SDS011;6364;53.590;9.956;2024-03-22T05:59:01;74.65;;;43.90;;
12597;SDS011;6364;53.590;9.956;2024-03-22T06:01:26;77.60;;;45.65;;
12597;SDS011;6364;53.590;9.956;2024-03-22T06:03:52;81.90;;;45.38;;
12597;SDS011;6364;53.590;9.956;2024-03-22T06:06:17;80.70;;;46.00;;
12597;SDS011;6364;53.590;9.956;2024-03-22T06:08:43;80.30;;;46.30;;
12597;SDS011;6364;53.590;9.956;2024-03-22T06:11:10;76.85;;;44.65;;
12597;SDS011;6364;53.590;9.956;2024-03-22T06:13:35;83.28;;;45.63;;
12597;SDS011;6364;53.590;9.956;2024-03-22T06:16:01;81.22;;;46.72;;
12597;SDS011;6364;53.590;9.956;2024-03-22T06:18:27;83.68;;;46.60;;
12597;SDS011;6364;53.590;9.956;2024-03-22T06:20:52;80.07;;;45.70;;
12597;SDS011;6364;53.590;9.956;2024-03-22T06:23:19;82.35;;;47.60;;
12597;SDS011;6364;53.590;9.956;2024-03-22T06:25:52;86.53;;;46.80;;
12597;SDS011;6364;53.590;9.956;2024-03-22T06:28:18;85.97;;;46.30;;
12597;SDS011;6364;53.590;9.956;2024-03-22T06:30:43;80.85;;;47.08;;
12597;SDS011;6364;53.590;9.956;2024-03-22T06:33:08;83.57;;;45.88;;
12597;SDS011;6364;53.590;9.956;2024-03-22T06:35:34;85.50;;;48.13;;
12597;SDS011;6364;53.590;9.956;2024-03-22T06:37:59;86.20;;;48.05;;
12597;SDS011;6364;53.590;9.956;2024-03-22T06:40:27;84.22;;;46.20;;
12597;SDS011;6364;53.590;9.956;2024-03-22T06:42:52;84.78;;;47.95;;
12597;SDS011;6364;53.590;9.956;2024-03-22T06:45:18;79.90;;;47.53;;
12597;SDS011;6364;53.590;9.956;2024-03-22T06:47:43;85.93;;;47.88;;
12597;SDS011;6364;53.590;9.956;2024-03-22T06:50:09;84.00;;;47.47;;
12597;SDS011;6364;53.590;9.956;2024-03-22T06:52:34;83.88;;;46.60;;
12597;SDS011;6364;53.590;9.956;2024-03-22T06:55:00;86.80;;;47.33;;
12597;SDS011;6364;53.590;9.956;2024-03-22T06:57:25;81.28;;;46.38;;
12597;SDS011;6364;53.590;9.956;2024-03-22T06:59:51;88.72;;;48.15;;
12597;SDS011;6364;53.590;9.956;2024-03-22T07:02:16;82.57;;;47.55;;
12597;SDS011;6364;53.590;9.956;2024-03-22T07:04:43;86.22;;;47.13;;
12597;SDS011;6364;53.590;9.956;2024-03-22T07:07:08;84.93;;;49.42;;
12597;SDS011;6364;53.590;9.956;2024-03-22T07:09:34;79.47;;;45.60;;
12597;SDS011;6364;53.590;9.956;2024-03-22T07:11:59;86.53;;;48.25;;
12597;SDS011;6364;53.590;9.956;2024-03-22T07:14:25;84.28;;;48.03;;
12597;SDS011;6364;53.590;9.956;2024-03-22T07:16:50;83.97;;;47.78;;
12597;SDS011;6364;53.590;9.956;2024-03-22T07:19:18;86.78;;;49.03;;
12597;SDS011;6364;53.590;9.956;2024-03-22T07:21:44;85.68;;;46.75;;
12597;SDS011;6364;53.590;9.956;2024-03-22T07:24:10;80.57;;;47.13;;
12597;SDS011;6364;53.590;9.956;2024-03-22T07:26:35;89.22;;;49.13;;
12597;SDS011;6364;53.590;9.956;2024-03-22T07:29:00;87.65;;;49.08;;
12597;SDS011;6364;53.590;9.956;2024-03-22T07:31:27;85.75;;;48.15;;
12597;SDS011;6364;53.590;9.956;2024-03-22T07:33:53;83.63;;;48.20;;
12597;SDS011;6364;53.590;9.956;2024-03-22T07:36:18;86.70;;;49.50;;
12597;SDS011;6364;53.590;9.956;2024-03-22T07:38:44;84.93;;;48.83;;
12597;SDS011;6364;53.590;9.956;2024-03-22T07:41:10;86.63;;;48.70;;
12597;SDS011;6364;53.590;9.956;2024-03-22T07:43:35;82.47;;;48.53;;
12597;SDS011;6364;53.590;9.956;2024-03-22T07:46:00;88.88;;;49.92;;
12597;SDS011;6364;53.590;9.956;2024-03-22T07:48:26;89.55;;;51.30;;
12597;SDS011;6364;53.590;9.956;2024-03-22T07:50:58;86.45;;;48.72;;
12597;SDS011;6364;53.590;9.956;2024-03-22T07:53:23;88.68;;;49.75;;
12597;SDS011;6364;53.590;9.956;2024-03-22T07:55:49;92.32;;;50.28;;
12597;SDS011;6364;53.590;9.956;2024-03-22T07:58:14;87.13;;;50.40;;
12597;SDS011;6364;53.590;9.956;2024-03-22T08:00:40;103.50;;;51.80;;
12597;SDS011;6364;53.590;9.956;2024-03-22T08:03:05;95.38;;;51.08;;
12597;SDS011;6364;53.590;9.956;2024-03-22T08:05:31;98.97;;;50.88;;
12597;SDS011;6364;53.590;9.956;2024-03-22T08:07:56;95.30;;;53.20;;
12597;SDS011;6364;53.590;9.956;2024-03-22T08:10:21;104.65;;;54.03;;
12597;SDS011;6364;53.590;9.956;2024-03-22T08:12:48;107.43;;;54.95;;
12597;SDS011;6364;53.590;9.956;2024-03-22T08:15:13;106.03;;;54.67;;
12597;SDS011;6364;53.590;9.956;2024-03-22T08:17:39;106.95;;;56.10;;
12597;SDS011;6364;53.590;9.956;2024-03-22T08:20:05;109.70;;;56.20;;
12597;SDS011;6364;53.590;9.956;2024-03-22T08:22:31;103.78;;;54.13;;
12597;SDS011;6364;53.590;9.956;2024-03-22T08:24:56;109.72;;;54.88;;
12597;SDS011;6364;53.590;9.956;2024-03-22T08:27:22;109.70;;;56.67;;
12597;SDS011;6364;53.590;9.956;2024-03-22T08:29:47;117.28;;;58.88;;
12597;SDS011;6364;53.590;9.956;2024-03-22T08:32:13;114.28;;;59.55;;
12597;SDS011;6364;53.590;9.956;2024-03-22T08:34:38;119.75;;;59.70;;
12597;SDS011;6364;53.590;9.956;2024-03-22T08:37:03;117.93;;;59.25;;
12597;SDS011;6364;53.590;9.956;2024-03-22T08:39:29;127.22;;;59.42;;
12597;SDS011;6364;53.590;9.956;2024-03-22T08:41:55;116.97;;;58.50;;
12597;SDS011;6364;53.590;9.956;2024-03-22T08:44:20;118.22;;;59.28;;
12597;SDS011;6364;53.590;9.956;2024-03-22T08:46:46;124.90;;;61.35;;
12597;SDS011;6364;53.590;9.956;2024-03-22T08:49:11;117.82;;;59.42;;
12597;SDS011;6364;53.590;9.956;2024-03-22T08:51:37;116.05;;;57.58;;
12597;SDS011;6364;53.590;9.956;2024-03-22T08:54:02;122.53;;;58.15;;
12597;SDS011;6364;53.590;9.956;2024-03-22T08:56:28;129.32;;;59.60;;
12597;SDS011;6364;53.590;9.956;2024-03-22T08:58:54;117.65;;;58.28;;
12597;SDS011;6364;53.590;9.956;2024-03-22T09:01:20;118.70;;;58.15;;
12597;SDS011;6364;53.590;9.956;2024-03-22T09:03:46;129.75;;;61.15;;
12597;SDS011;6364;53.590;9.956;2024-03-22T09:06:11;127.15;;;60.95;;
12597;SDS011;6364;53.590;9.956;2024-03-22T09:08:39;122.57;;;57.63;;
12597;SDS011;6364;53.590;9.956;2024-03-22T09:11:05;128.30;;;62.53;;
12597;SDS011;6364;53.590;9.956;2024-03-22T09:13:30;132.88;;;60.83;;
12597;SDS011;6364;53.590;9.956;2024-03-22T09:15:59;127.32;;;60.88;;
12597;SDS011;6364;53.590;9.956;2024-03-22T09:18:25;136.05;;;63.30;;
12597;SDS011;6364;53.590;9.956;2024-03-22T09:20:51;136.88;;;61.97;;
12597;SDS011;6364;53.590;9.956;2024-03-22T09:23:21;139.48;;;64.40;;
12597;SDS011;6364;53.590;9.956;2024-03-22T09:25:46;143.55;;;63.20;;
12597;SDS011;6364;53.590;9.956;2024-03-22T09:28:12;144.75;;;61.38;;
12597;SDS011;6364;53.590;9.956;2024-03-22T09:30:38;138.77;;;63.10;;
12597;SDS011;6364;53.590;9.956;2024-03-22T09:33:05;143.68;;;62.65;;
12597;SDS011;6364;53.590;9.956;2024-03-22T09:35:32;144.40;;;62.35;;
12597;SDS011;6364;53.590;9.956;2024-03-22T09:37:58;143.70;;;63.55;;
12597;SDS011;6364;53.590;9.956;2024-03-22T09:40:24;125.05;;;58.45;;
12597;SDS011;6364;53.590;9.956;2024-03-22T09:42:49;125.63;;;58.35;;
12597;SDS011;6364;53.590;9.956;2024-03-22T09:45:15;129.63;;;58.55;;
12597;SDS011;6364;53.590;9.956;2024-03-22T09:47:43;117.47;;;55.85;;
12597;SDS011;6364;53.590;9.956;2024-03-22T09:50:09;124.97;;;57.58;;
12597;SDS011;6364;53.590;9.956;2024-03-22T09:52:35;113.22;;;53.47;;
12597;SDS011;6364;53.590;9.956;2024-03-22T09:55:01;108.90;;;51.33;;
12597;SDS011;6364;53.590;9.956;2024-03-22T09:57:29;102.90;;;50.78;;
12597;SDS011;6364;53.590;9.956;2024-03-22T09:59:55;108.80;;;51.13;;
12597;SDS011;6364;53.590;9.956;2024-03-22T10:02:21;104.55;;;49.45;;
12597;SDS011;6364;53.590;9.956;2024-03-22T10:04:48;99.88;;;47.60;;
12597;SDS011;6364;53.590;9.956;2024-03-22T10:07:16;103.53;;;45.75;;
12597;SDS011;6364;53.590;9.956;2024-03-22T10:09:41;98.28;;;47.60;;
12597;SDS011;6364;53.590;9.956;2024-03-22T10:12:08;99.20;;;47.67;;
12597;SDS011;6364;53.590;9.956;2024-03-22T10:14:34;98.03;;;47.42;;
12597;SDS011;6364;53.590;9.956;2024-03-22T10:17:00;100.65;;;47.05;;
12597;SDS011;6364;53.590;9.956;2024-03-22T10:19:25;103.47;;;47.72;;
12597;SDS011;6364;53.590;9.956;2024-03-22T10:22:00;104.32;;;49.20;;
12597;SDS011;6364;53.590;9.956;2024-03-22T10:24:26;104.47;;;49.72;;
12597;SDS011;6364;53.590;9.956;2024-03-22T10:26:52;104.10;;;49.95;;
12597;SDS011;6364;53.590;9.956;2024-03-22T10:29:17;100.10;;;49.50;;
12597;SDS011;6364;53.590;9.956;2024-03-22T10:31:45;101.30;;;49.00;;
12597;SDS011;6364;53.590;9.956;2024-03-22T10:34:11;85.75;;;44.10;;
12597;SDS011;6364;53.590;9.956;2024-03-22T10:36:38;97.25;;;44.03;;
12597;SDS011;6364;53.590;9.956;2024-03-22T10:39:03;91.05;;;40.90;;
12597;SDS011;6364;53.590;9.956;2024-03-22T10:41:29;85.68;;;41.55;;
12597;SDS011;6364;53.590;9.956;2024-03-22T10:43:54;76.97;;;36.83;;
12597;SDS011;6364;53.590;9.956;2024-03-22T10:46:20;74.90;;;37.42;;
12597;SDS011;6364;53.590;9.956;2024-03-22T10:48:46;68.07;;;35.00;;
12597;SDS011;6364;53.590;9.956;2024-03-22T10:51:11;59.17;;;30.23;;
12597;SDS011;6364;53.590;9.956;2024-03-22T10:53:38;65.13;;;32.45;;
12597;SDS011;6364;53.590;9.956;2024-03-22T10:56:03;57.15;;;31.00;;
12597;SDS011;6364;53.590;9.956;2024-03-22T10:58:29;58.20;;;31.40;;
12597;SDS011;6364;53.590;9.956;2024-03-22T11:00:56;57.47;;;30.38;;
12597;SDS011;6364;53.590;9.956;2024-03-22T11:03:25;48.08;;;27.25;;
12597;SDS011;6364;53.590;9.956;2024-03-22T11:05:57;45.60;;;25.90;;
12597;SDS011;6364;53.590;9.956;2024-03-22T11:08:23;46.28;;;25.85;;
12597;SDS011;6364;53.590;9.956;2024-03-22T11:10:53;44.55;;;24.23;;
12597;SDS011;6364;53.590;9.956;2024-03-22T11:13:18;44.80;;;23.05;;
12597;SDS011;6364;53.590;9.956;2024-03-22T11:15:47;42.53;;;23.15;;
12597;SDS011;6364;53.590;9.956;2024-03-22T11:18:13;44.30;;;23.35;;
12597;SDS011;6364;53.590;9.956;2024-03-22T11:20:39;42.53;;;23.77;;
12597;SDS011;6364;53.590;9.956;2024-03-22T11:23:04;42.33;;;22.17;;
12597;SDS011;6364;53.590;9.956;2024-03-22T11:25:33;40.80;;;23.40;;
12597;SDS011;6364;53.590;9.956;2024-03-22T11:27:59;40.08;;;22.30;;
12597;SDS011;6364;53.590;9.956;2024-03-22T11:30:26;40.78;;;22.33;;
12597;SDS011;6364;53.590;9.956;2024-03-22T11:32:52;39.13;;;21.63;;
12597;SDS011;6364;53.590;9.956;2024-03-22T11:35:17;39.83;;;21.67;;
12597;SDS011;6364;53.590;9.956;2024-03-22T11:37:42;37.15;;;21.92;;
12597;SDS011;6364;53.590;9.956;2024-03-22T11:40:08;37.88;;;21.20;;
12597;SDS011;6364;53.590;9.956;2024-03-22T11:42:35;37.05;;;22.27;;
12597;SDS011;6364;53.590;9.956;2024-03-22T11:45:02;34.75;;;20.38;;
12597;SDS011;6364;53.590;9.956;2024-03-22T11:47:27;32.80;;;19.55;;
12597;SDS011;6364;53.590;9.956;2024-03-22T11:49:53;34.35;;;18.80;;
12597;SDS011;6364;53.590;9.956;2024-03-22T11:52:23;30.52;;;18.58;;
12597;SDS011;6364;53.590;9.956;2024-03-22T11:54:51;29.00;;;17.60;;
12597;SDS011;6364;53.590;9.956;2024-03-22T11:57:23;33.35;;;18.38;;
12597;SDS011;6364;53.590;9.956;2024-03-22T11:59:50;32.33;;;18.00;;
12597;SDS011;6364;53.590;9.956;2024-03-22T12:05:01;30.90;;;18.52;;
12597;SDS011;6364;53.590;9.956;2024-03-22T12:07:28;32.65;;;17.58;;
12597;SDS011;6364;53.590;9.956;2024-03-22T12:09:53;26.70;;;16.80;;
12597;SDS011;6364;53.590;9.956;2024-03-22T12:12:20;27.00;;;17.85;;
12597;SDS011;6364;53.590;9.956;2024-03-22T12:14:47;28.38;;;16.80;;
12597;SDS011;6364;53.590;9.956;2024-03-22T12:17:12;30.85;;;17.42;;
12597;SDS011;6364;53.590;9.956;2024-03-22T12:19:37;28.85;;;17.92;;
12597;SDS011;6364;53.590;9.956;2024-03-22T12:22:03;31.67;;;18.48;;
12597;SDS011;6364;53.590;9.956;2024-03-22T12:24:31;27.98;;;17.80;;
12597;SDS011;6364;53.590;9.956;2024-03-22T12:26:57;30.92;;;19.00;;
12597;SDS011;6364;53.590;9.956;2024-03-22T12:29:22;32.03;;;18.60;;
12597;SDS011;6364;53.590;9.956;2024-03-22T12:31:48;30.73;;;18.05;;
12597;SDS011;6364;53.590;9.956;2024-03-22T12:34:14;24.05;;;15.00;;
12597;SDS011;6364;53.590;9.956;2024-03-22T12:36:39;25.95;;;15.45;;
12597;SDS011;6364;53.590;9.956;2024-03-22T12:39:04;21.33;;;12.32;;
12597;SDS011;6364;53.590;9.956;2024-03-22T12:41:30;18.50;;;12.50;;
12597;SDS011;6364;53.590;9.956;2024-03-22T12:43:56;18.90;;;12.15;;
12597;SDS011;6364;53.590;9.956;2024-03-22T12:46:22;16.38;;;10.70;;
12597;SDS011;6364;53.590;9.956;2024-03-22T12:48:47;15.52;;;10.05;;
12597;SDS011;6364;53.590;9.956;2024-03-22T12:51:12;12.80;;;9.13;;
12597;SDS011;6364;53.590;9.956;2024-03-22T12:53:38;19.13;;;12.60;;
12597;SDS011;6364;53.590;9.956;2024-03-22T12:56:04;14.52;;;10.75;;
12597;SDS011;6364;53.590;9.956;2024-03-22T12:58:30;16.10;;;10.05;;
12597;SDS011;6364;53.590;9.956;2024-03-22T13:00:56;14.07;;;10.13;;
12597;SDS011;6364;53.590;9.956;2024-03-22T13:03:22;10.73;;;7.68;;
12597;SDS011;6364;53.590;9.956;2024-03-22T13:05:47;8.95;;;6.03;;
12597;SDS011;6364;53.590;9.956;2024-03-22T13:08:12;7.13;;;5.25;;
12597;SDS011;6364;53.590;9.956;2024-03-22T13:10:38;6.75;;;4.47;;
12597;SDS011;6364;53.590;9.956;2024-03-22T13:13:08;6.95;;;4.90;;
12597;SDS011;6364;53.590;9.956;2024-03-22T13:15:33;6.07;;;4.93;;
12597;SDS011;6364;53.590;9.956;2024-03-22T13:18:00;5.38;;;4.30;;
12597;SDS011;6364;53.590;9.956;2024-03-22T13:20:25;8.20;;;4.70;;
12597;SDS011;6364;53.590;9.956;2024-03-22T13:22:51;6.80;;;4.22;;
12597;SDS011;6364;53.590;9.956;2024-03-22T13:25:16;5.25;;;4.68;;
12597;SDS011;6364;53.590;9.956;2024-03-22T13:27:41;5.45;;;4.50;;
12597;SDS011;6364;53.590;9.956;2024-03-22T13:30:07;7.07;;;4.95;;
12597;SDS011;6364;53.590;9.956;2024-03-22T13:32:36;5.50;;;4.75;;
12597;SDS011;6364;53.590;9.956;2024-03-22T13:35:02;8.48;;;5.07;;
12597;SDS011;6364;53.590;9.956;2024-03-22T13:37:28;6.93;;;5.00;;
12597;SDS011;6364;53.590;9.956;2024-03-22T13:39:53;7.95;;;4.90;;
12597;SDS011;6364;53.590;9.956;2024-03-22T13:42:19;6.15;;;5.30;;
12597;SDS011;6364;53.590;9.956;2024-03-22T13:44:44;5.85;;;4.72;;
12597;SDS011;6364;53.590;9.956;2024-03-22T13:47:10;6.13;;;4.93;;
12597;SDS011;6364;53.590;9.956;2024-03-22T13:49:35;5.78;;;4.55;;
12597;SDS011;6364;53.590;9.956;2024-03-22T13:52:01;6.03;;;4.90;;
12597;SDS011;6364;53.590;9.956;2024-03-22T13:54:26;6.13;;;4.80;;
12597;SDS011;6364;53.590;9.956;2024-03-22T13:56:51;6.75;;;4.90;;
12597;SDS011;6364;53.590;9.956;2024-03-22T13:59:17;5.72;;;4.00;;
12597;SDS011;6364;53.590;9.956;2024-03-22T14:01:42;4.88;;;3.90;;
12597;SDS011;6364;53.590;9.956;2024-03-22T14:04:10;4.78;;;3.35;;
12597;SDS011;6364;53.590;9.956;2024-03-22T14:06:36;5.10;;;3.70;;
12597;SDS011;6364;53.590;9.956;2024-03-22T14:09:02;4.03;;;3.63;;
12597;SDS011;6364;53.590;9.956;2024-03-22T14:11:28;4.50;;;3.33;;
12597;SDS011;6364;53.590;9.956;2024-03-22T14:13:55;3.95;;;3.42;;
12597;SDS011;6364;53.590;9.956;2024-03-22T14:16:23;3.50;;;3.20;;
12597;SDS011;6364;53.590;9.956;2024-03-22T14:18:49;3.67;;;2.83;;
12597;SDS011;6364;53.590;9.956;2024-03-22T14:21:15;4.07;;;3.53;;
12597;SDS011;6364;53.590;9.956;2024-03-22T14:23:47;3.80;;;3.00;;
12597;SDS011;6364;53.590;9.956;2024-03-22T14:26:14;4.25;;;3.10;;
12597;SDS011;6364;53.590;9.956;2024-03-22T14:28:40;3.58;;;2.78;;
12597;SDS011;6364;53.590;9.956;2024-03-22T14:31:09;3.63;;;2.92;;